• Join FlightAware (Why Join?)
  • Login
  • US Flag 
08:49PM EDT


 

Airport Tracker/Info


-or-


 

Live Flight TrackerFlight Track Log ✈ SWA293 ✈ 23-Jun-2013 ✈ KSEA - KMDW

Flight Track Log - Related Links

Times and Time Zones

All times are in EDT time to prevent confusion due to time zone crossing. See the SWA293 flight status page for this flight to view local times or setup timezone preferences in your user account.

Time Position Orientation Groundspeed Altitude Reporting Facility
EDT Latitude Longitude Course Direction KTS MPH feet Rate Location/Type
10:24AM 47.3790 -122.3100 181° South 219 252 2,800  Level FlightAware
10:25AM 47.3340 -122.3070 177° South 231 266 4,700 2,460 Climbing FlightAware
10:25AM 47.3180 -122.2890 143° Southeast 251 289 5,300 2,160 Climbing FlightAware
10:25AM 47.3130 -122.2700 111° Southeast 263 303 5,800 3,000 Climbing FlightAware
10:26AM 47.3210 -122.2170 77° East 273 314 7,400 3,060 Climbing FlightAware
10:26AM 47.3330 -122.1630 72° East 280 322 8,900 1,860 Climbing FlightAware
10:27AM 47.3430 -122.1180 72° East 289 333 9,100 180 Climbing FlightAware
10:27AM 47.3550 -122.0610 73° East 286 329 9,100  Level FlightAware
10:27AM 47.3640 -122.0200 72° East 285 328 9,100 840 Level FlightAware
10:28AM 47.3750 -121.9720 71° East 287 330 9,800 1,620 Climbing FlightAware
10:28AM 47.3900 -121.9010 73° East 321 369 10,800 1,500 Climbing FlightAware
10:29AM 47.4070 -121.8270 71° East 354 407 11,600 2,040 Climbing FlightAware
10:30AM 47.4260 -121.7300 74° East 366 421 13,400 2,340 Climbing FlightAware
10:32AM 47.4090 -121.4350 95° East 388 447 17,800 2,220 Climbing FlightAware
10:32AM 47.3740 -121.3180 114° Southeast 402 463 19,400 2,040 Climbing FlightAware
10:33AM 47.3440 -121.2200 114° Southeast 408 470 20,800 2,040 Climbing FlightAware
10:34AM 47.3160 -121.1260 114° Southeast 413 475 22,000 1,860 Climbing FlightAware
10:34AM 47.2770 -120.9980 114° Southeast 423 487 23,500 1,560 Climbing FlightAware
10:35AM 47.2440 -120.8910 114° Southeast 435 501 24,400 1,200 Climbing FlightAware
10:36AM 47.2200 -120.8150 115° Southeast 444 511 24,900 1,320 Climbing FlightAware
10:36AM 47.1810 -120.6880 114° Southeast 451 519 26,100 1,380 Climbing FlightAware
10:37AM 47.1480 -120.5810 114° Southeast 456 525 26,900 1,260 Climbing FlightAware
10:38AM 47.1190 -120.4900 115° Southeast 460 529 27,600 1,200 Climbing FlightAware
10:38AM 47.0880 -120.3890 114° Southeast 466 536 28,300 1,140 Climbing FlightAware
10:39AM 47.0470 -120.2570 114° Southeast 472 543 29,200 1,080 Climbing FlightAware
10:39AM 47.0200 -120.1740 115° Southeast 475 547 29,700 1,260 Climbing FlightAware
10:40AM 46.9810 -120.0500 115° Southeast 473 544 30,700 1,320 Climbing FlightAware
10:41AM 46.9470 -119.9420 115° Southeast 473 544 31,500 1,200 Climbing FlightAware
10:41AM 46.9060 -119.8140 115° Southeast 471 542 32,400 1,140 Climbing FlightAware
10:42AM 46.8760 -119.7220 115° Southeast 471 542 33,000 960 Climbing FlightAware
10:43AM 46.8380 -119.6020 115° Southeast 474 545 33,600 900 Climbing FlightAware
10:43AM 46.7980 -119.4810 116° Southeast 474 545 34,300 900 Climbing FlightAware
10:44AM 46.7610 -119.3650 115° Southeast 473 544 34,900 540 Climbing FlightAware
10:45AM 46.7310 -119.2720 115° Southeast 475 547 35,000 60 Climbing FlightAware
10:45AM 46.7010 -119.1820 116° Southeast 477 549 35,000  Level FlightAware
10:46AM 46.6590 -119.0530 115° Southeast 481 554 35,000  Level FlightAware
10:47AM 46.6180 -118.9290 116° Southeast 482 555 35,000  Level FlightAware
10:47AM 46.5840 -118.8260 116° Southeast 483 556 35,000  Level FlightAware
10:48AM 46.5380 -118.6890 116° Southeast 485 558 35,000  Level FlightAware
10:49AM 46.4980 -118.5690 116° Southeast 485 558 35,000  Level FlightAware
10:49AM 46.4550 -118.4430 116° Southeast 487 560 35,000  Level FlightAware
10:50AM 46.4130 -118.3210 116° Southeast 487 560 35,000  Level FlightAware
10:51AM 46.3740 -118.2060 116° Southeast 487 560 35,000  Level FlightAware
10:51AM 46.3330 -118.0850 116° Southeast 488 562 35,000  Level FlightAware
10:52AM 46.2800 -117.9280 116° Southeast 488 562 35,000  Level FlightAware
10:53AM 46.2300 -117.7850 117° Southeast 490 564 35,000  Level FlightAware
10:54AM 46.1940 -117.6810 117° Southeast 489 563 35,000  Level FlightAware
10:54AM 46.1440 -117.5380 117° Southeast 490 564 35,000  Level FlightAware
10:55AM 46.1070 -117.4320 117° Southeast 491 565 35,000  Level FlightAware
10:56AM 46.0710 -117.3250 116° Southeast 491 565 35,000  Level FlightAware
10:56AM 46.0210 -117.1870 118° Southeast 491 565 35,000  Level FlightAware
10:57AM 45.9810 -117.0740 117° Southeast 490 564 35,000  Level FlightAware
10:58AM 45.9400 -116.9580 117° Southeast 490 564 35,000  Level FlightAware
10:59AM 45.8910 -116.8240 118° Southeast 492 566 35,000  Level FlightAware
10:59AM 45.8520 -116.7140 117° Southeast 492 566 35,000  Level FlightAware
11:00AM 45.7910 -116.5420 117° Southeast 491 565 35,000  Level FlightAware
11:01AM 45.7590 -116.4540 118° Southeast 491 565 35,000  Level FlightAware
11:02AM 45.7270 -116.3620 116° Southeast 491 565 35,000  Level FlightAware
11:02AM 45.6940 -116.2710 117° Southeast 491 565 35,000  Level FlightAware
11:03AM 45.6270 -116.0820 117° Southeast 491 565 35,000  Level FlightAware
11:04AM 45.5860 -115.9690 117° Southeast 491 565 35,000  Level FlightAware
11:05AM 45.5550 -115.8800 116° Southeast 491 565 35,000  Level FlightAware
11:06AM 45.5130 -115.7620 117° Southeast 491 565 35,000  Level FlightAware
11:06AM 45.4780 -115.6670 118° Southeast 491 565 35,000  Level FlightAware
11:07AM 45.4360 -115.5490 117° Southeast 491 565 35,000  Level FlightAware
11:08AM 45.4050 -115.4610 117° Southeast 491 565 35,000  Level FlightAware
11:08AM 45.3730 -115.3720 117° Southeast 491 565 35,000  Level FlightAware
11:09AM 45.3300 -115.2520 117° Southeast 491 565 35,000  Level FlightAware
11:10AM 45.1719 -114.8886 117° Southeast 498 573 35,000  Level Seattle Center
11:11AM 45.1297 -114.7800 119° Southeast 496 571 35,000  Level Salt Lake Center
11:12AM 45.0656 -114.6153 119° Southeast 497 572 35,000  Level Salt Lake Center
11:13AM 44.9922 -114.4256 119° Southeast 493 567 35,000  Level Salt Lake Center
11:14AM 44.9281 -114.2617 119° Southeast 496 571 35,000  Level Salt Lake Center
11:15AM 44.8631 -114.0644 115° Southeast 496 571 35,000  Level Salt Lake Center
11:16AM 44.8553 -113.8861 93° East 503 579 35,000  Level Salt Lake Center
11:17AM 44.8464 -113.6669 93° East 503 579 35,000  Level Salt Lake Center
11:18AM 44.8361 -113.4811 94° East 500 575 35,000  Level Salt Lake Center
11:19AM 44.8264 -113.2636 94° East 500 575 35,000  Level Salt Lake Center
11:20AM 44.8194 -113.0772 93° East 500 575 35,000  Level Salt Lake Center
11:21AM 44.8086 -112.8586 94° East 502 578 35,000  Level Salt Lake Center
11:22AM 44.7994 -112.6703 94° East 504 580 35,000  Level Salt Lake Center
11:23AM 44.7906 -112.4814 94° East 506 582 35,000  Level Salt Lake Center
11:24AM 44.7786 -112.2614 94° East 505 581 35,000  Level Salt Lake Center
11:25AM 44.7692 -112.0714 94° East 508 585 35,000  Level Salt Lake Center
11:26AM 44.7556 -111.8483 95° East 510 587 35,000  Level Salt Lake Center
11:27AM 44.7442 -111.6564 95° East 511 588 35,000  Level Salt Lake Center
11:28AM 44.7308 -111.4314 95° East 511 588 35,000  Level Salt Lake Center
11:29AM 44.7189 -111.2364 95° East 513 590 35,000  Level Salt Lake Center
11:30AM 44.7064 -111.0428 95° East 515 593 35,000  Level Salt Lake Center
11:31AM 44.6919 -110.8186 95° East 516 594 35,000  Level Salt Lake Center
11:32AM 44.6781 -110.6283 96° East 513 590 35,000  Level Salt Lake Center
11:33AM 44.6633 -110.4072 95° East 510 587 35,000  Level Salt Lake Center
11:34AM 44.6500 -110.2186 96° East 509 586 35,000  Level Salt Lake Center
11:35AM 44.6336 -109.9997 96° East 507 583 35,000  Level Salt Lake Center
11:36AM 44.6192 -109.8131 96° East 505 581 35,000  Level Salt Lake Center
11:37AM 44.6025 -109.5961 96° East 502 578 35,000  Level Salt Lake Center
11:38AM 44.5883 -109.4097 96° East 503 579 35,000  Level Salt Lake Center
11:39AM 44.5703 -109.1939 97° East 501 577 35,000  Level Salt Lake Center
11:40AM 44.5547 -109.0069 97° East 504 580 35,000  Level Salt Lake Center
11:41AM 44.5367 -108.7875 97° East 506 582 35,000  Level Salt Lake Center
11:43AM 44.5206 -108.6003 97° East 508 585 35,000  Level Salt Lake Center
11:44AM 44.5047 -108.4103 97° East 511 588 35,000  Level Salt Lake Center
11:45AM 44.4844 -108.1908 97° East 512 589 35,000  Level Salt Lake Center
11:46AM 44.4681 -108.0022 97° East 512 589 35,000  Level Salt Lake Center
11:47AM 44.4489 -107.7908 97° East 510 587 35,000  Level Salt Lake Center
11:48AM 44.4289 -107.5911 98° East 509 586 35,000  Level Salt Lake Center
11:49AM 44.4086 -107.3722 97° East 509 586 35,000  Level Salt Lake Center
11:50AM 44.3894 -107.1858 98° East 507 583 35,000  Level Salt Lake Center
11:51AM 44.3678 -106.9675 98° East 507 583 35,000  Level Salt Lake Center
11:51AM 44.3578 -106.8728 98° East 507 583 35,000  Level Denver Center
11:53AM 44.3314 -106.5928 97° East 509 586 35,000  Level Salt Lake Center
11:54AM 44.3086 -106.3761 98° East 507 583 35,000  Level Salt Lake Center
11:54AM 44.2933 -106.2506 100° East 508 585 35,000  Level Denver Center
11:56AM 44.2725 -106.0628 99° East 509 586 35,000  Level Denver Center
11:57AM 44.2481 -105.8444 99° East 510 587 35,000  Level Denver Center
11:58AM 44.2275 -105.6564 99° East 510 587 35,000  Level Denver Center
11:59AM 44.2028 -105.4400 99° East 509 586 35,000  Level Denver Center
12:00PM 44.1817 -105.2539 99° East 509 586 35,000  Level Denver Center
12:01PM 44.1553 -105.0367 100° East 509 586 35,000  Level Denver Center
12:02PM 44.1333 -104.8506 99° East 509 586 35,000  Level Denver Center
12:03PM 44.1108 -104.6647 100° East 509 586 35,000  Level Denver Center
12:04PM 44.0833 -104.4489 100° East 508 585 35,000  Level Denver Center
12:05PM 44.0600 -104.2658 100° East 506 582 35,000  Level Denver Center
12:06PM 44.0328 -104.0511 100° East 505 581 35,000  Level Denver Center
12:07PM 44.0086 -103.8644 100° East 509 586 35,000  Level Denver Center
12:08PM 43.9803 -103.6472 100° East 512 589 35,000  Level Denver Center
12:09PM 43.9556 -103.4594 100° East 514 592 35,000  Level Denver Center
12:10PM 43.9264 -103.2433 101° East 511 588 35,000  Level Denver Center
12:11PM 43.9022 -103.0608 100° East 507 583 35,000  Level Denver Center
12:12PM 43.8711 -102.8458 101° East 508 585 35,000  Level Denver Center
12:13PM 43.8458 -102.6625 101° East 507 583 35,000  Level Denver Center
12:14PM 43.8192 -102.4794 101° East 507 583 35,000  Level Denver Center
12:15PM 43.7894 -102.2675 101° East 504 580 35,000  Level Denver Center
12:16PM 43.7586 -102.0622 102° East 511 588 35,000  Level Denver Center
12:17PM 43.7306 -101.8711 101° East 510 587 35,000  Level Denver Center
12:18PM 43.7017 -101.6797 102° East 512 589 35,000  Level Denver Center
12:19PM 43.6733 -101.4897 102° East 511 588 35,000  Level Minneapolis Center
12:20PM 43.6447 -101.2994 102° East 509 586 35,000  Level Denver Center
12:21PM 43.6078 -101.0714 103° East 508 585 35,000  Level Denver Center
12:22PM 43.5792 -100.8833 102° East 504 580 35,000  Level Denver Center
12:23PM 43.5489 -100.6936 102° East 508 585 35,000  Level Minneapolis Center
12:24PM 43.5192 -100.5097 103° East 500 575 35,000  Level Denver Center
12:26PM 43.4889 -100.3211 102° East 505 581 35,000  Level Denver Center
12:26PM 43.4583 -100.1369 103° East 501 577 35,000  Level Minneapolis Center
12:28PM 43.4275 -99.9525 103° East 498 573 35,000  Level Minneapolis Center
12:29PM 43.3972 -99.7675 103° East 497 572 35,000  Level Minneapolis Center
12:30PM 43.3594 -99.5464 103° East 495 570 35,000  Level Minneapolis Center
12:31PM 43.3283 -99.3592 103° East 502 578 35,000  Level Minneapolis Center
12:32PM 43.3022 -99.2122 104° East 499 574 35,000  Level Minneapolis Center
12:33PM 43.2608 -98.9767 103° East 501 577 35,000  Level Minneapolis Center
12:34PM 43.2286 -98.7925 103° East 500 575 35,000  Level Minneapolis Center
12:35PM 43.1950 -98.6100 104° East 497 572 35,000  Level Minneapolis Center
12:36PM 43.1631 -98.4303 104° East 492 566 35,000 -540 Level Minneapolis Center
12:37PM 43.1319 -98.2575 104° East 477 549 34,000 -540 Descending Minneapolis Center
12:38PM 43.0928 -98.0494 104° East 473 544 34,000  Level Minneapolis Center
12:39PM 43.0614 -97.8764 104° East 471 542 34,000  Level Minneapolis Center
12:40PM 43.0050 -97.7183 116° Southeast 463 533 34,000  Level Minneapolis Center
12:41PM 42.9503 -97.5656 116° Southeast 457 526 34,000 -540 Level Minneapolis Center
12:42PM 42.8964 -97.4142 116° Southeast 452 520 33,000 -540 Descending Minneapolis Center
12:43PM 42.8417 -97.2622 116° Southeast 450 518 33,000  Level Minneapolis Center
12:44PM 42.7850 -97.1081 117° Southeast 452 520 33,000  Level Minneapolis Center
12:45PM 42.7175 -96.9244 117° Southeast 455 524 33,000  Level Minneapolis Center
12:46PM 42.6600 -96.7686 117° Southeast 454 522 33,000  Level Minneapolis Center
12:51PM 42.3560 -95.9620 117° Southeast 440 506 33,000  Level FlightAware
12:52PM 42.3260 -95.8810 117° Southeast 440 506 33,000  Level FlightAware
12:53PM 42.2900 -95.7850 117° Southeast 440 506 33,000  Level FlightAware
12:53PM 42.2700 -95.7330 117° Southeast 440 506 33,000 3,060 Level FlightAware
12:53PM 42.2960 -95.6460 68° East 463 533 35,000 2,100 Climbing FlightAware
12:54PM 42.3080 -95.5210 83° East 464 534 35,000  Level FlightAware
12:55PM 42.3190 -95.3990 83° East 464 534 35,000  Level FlightAware
12:56PM 42.3300 -95.2810 83° East 463 533 35,000  Level FlightAware
12:56PM 42.3400 -95.1720 83° East 463 533 35,000  Level FlightAware
12:57PM 42.3500 -95.0560 83° East 462 532 35,000  Level FlightAware
12:57PM 42.3600 -94.9410 83° East 462 532 35,000  Level FlightAware
12:58PM 42.3710 -94.8250 83° East 462 532 35,000  Level FlightAware
12:59PM 42.3870 -94.6370 83° East 461 531 35,000  Level FlightAware
01:00PM 42.3950 -94.5490 83° East 461 531 35,000  Level FlightAware
01:01PM 42.4050 -94.3140 87° East 459 528 35,000  Level FlightAware
01:02PM 42.3560 -94.1910 118° Southeast 438 504 35,000  Level FlightAware
01:03PM 42.3340 -94.0960 107° East 437 503 35,000  Level FlightAware
01:03PM 42.3080 -93.9860 108° East 437 503 35,000  Level FlightAware
01:04PM 42.2840 -93.8830 107° East 439 505 35,000  Level FlightAware
01:05PM 42.2600 -93.7840 108° East 442 509 35,000  Level FlightAware
01:05PM 42.2320 -93.6690 108° East 444 511 35,000  Level FlightAware
01:06PM 42.2050 -93.5570 108° East 445 512 35,000  Level FlightAware
01:07PM 42.1770 -93.4420 108° East 447 514 35,000  Level FlightAware
01:07PM 42.1500 -93.3290 108° East 446 513 35,000  Level FlightAware
01:08PM 42.1290 -93.2460 109° East 446 513 35,000  Level FlightAware
01:09PM 42.1060 -93.1500 108° East 444 511 35,000  Level FlightAware
01:09PM 42.0760 -93.0310 109° East 442 509 35,000  Level FlightAware
01:10PM 42.0490 -92.9230 109° East 439 505 35,000  Level FlightAware
01:11PM 42.0260 -92.8270 108° East 433 498 35,000  Level FlightAware
01:11PM 42.0010 -92.7280 109° East 432 497 35,000  Level FlightAware
01:12PM 41.9700 -92.6080 109° East 437 503 35,000  Level FlightAware
01:13PM 41.9450 -92.5080 109° East 440 506 35,000  Level FlightAware
01:13PM 41.9150 -92.3890 109° East 445 512 35,000  Level FlightAware
01:14PM 41.8860 -92.2760 109° East 450 518 35,000  Level FlightAware
01:15PM 41.8610 -92.1760 109° East 453 521 35,000 -120 Level FlightAware
01:16PM 41.8310 -92.0620 109° East 450 518 34,900 -660 Descending FlightAware
01:16PM 41.8000 -91.9420 109° East 446 513 34,100 -1,080 Descending FlightAware
01:17PM 41.7740 -91.8390 109° East 447 514 33,400 -1,020 Descending FlightAware
01:18PM 41.7500 -91.7480 109° East 442 509 32,800 -1,020 Descending FlightAware
01:18PM 41.7180 -91.6270 109° East 436 502 32,000 -1,080 Descending FlightAware
01:19PM 41.6880 -91.5110 109° East 434 499 31,200 -1,020 Descending FlightAware
01:20PM 41.6610 -91.4090 109° East 440 506 30,600 -900 Descending FlightAware
01:20PM 41.6320 -91.3020 110° East 453 521 30,000 -900 Descending FlightAware
01:21PM 41.6030 -91.1950 110° East 455 524 29,400 -1,020 Descending FlightAware
01:22PM 41.5710 -91.0750 110° East 446 513 28,600 -1,020 Descending FlightAware
01:22PM 41.5540 -91.0110 110° East 448 516 28,200 -1,080 Descending FlightAware
01:23PM 41.5240 -90.8990 110° East 440 506 27,400 -1,080 Descending FlightAware
01:24PM 41.5000 -90.8090 110° East 432 497 26,800 -900 Descending FlightAware
01:24PM 41.4750 -90.7180 110° East 436 502 26,300 -960 Descending FlightAware
01:25PM 41.4410 -90.5940 110° East 437 503 25,500 -1,080 Descending FlightAware
01:26PM 41.4150 -90.4990 110° East 435 501 24,800 -1,080 Descending FlightAware
01:26PM 41.3840 -90.3880 110° East 433 498 24,100 -1,020 Descending FlightAware
01:27PM 41.3600 -90.2990 110° East 419 482 23,500 -1,080 Descending FlightAware
01:28PM 41.3340 -90.2060 110° East 409 471 22,800 -1,020 Descending FlightAware
01:28PM 41.3130 -90.1300 110° East 404 465 22,300 -1,080 Descending FlightAware
01:29PM 41.2810 -90.0180 111° Southeast 391 450 21,400 -1,440 Descending FlightAware
01:30PM 41.2590 -89.9390 110° East 380 437 20,300 -1,980 Descending FlightAware
01:30PM 41.2300 -89.8350 110° East 371 427 18,700 -1,980 Descending FlightAware
01:31PM 41.2060 -89.7490 110° East 369 425 17,500 -1,980 Descending FlightAware
01:32PM 41.1820 -89.6660 111° Southeast 374 430 16,100 -1,920 Descending FlightAware
01:33PM 41.1620 -89.5660 105° East 365 420 14,800 -1,440 Descending FlightAware
01:33PM 41.1670 -89.4790 86° East 367 422 14,100 -1,080 Descending FlightAware
01:34PM 41.1720 -89.4020 85° East 367 422 13,500 -1,020 Descending FlightAware
01:34PM 41.1790 -89.3050 84° East 366 421 12,800 -1,020 Descending FlightAware
01:35PM 41.1850 -89.2080 85° East 361 415 12,100 -960 Descending FlightAware
01:36PM 41.1930 -89.0840 85° East 353 406 11,200 -1,080 Descending FlightAware
01:37PM 41.1990 -89.0020 84° East 349 402 10,500 -960 Descending FlightAware
01:38PM 41.2050 -88.9090 85° East 347 399 9,900 -600 Descending FlightAware
01:38PM 41.2100 -88.8510 83° East 328 377 9,800 -300 Descending FlightAware
01:38PM 41.2200 -88.8210 66° East 315 362 9,700 120 Descending FlightAware
01:39PM 41.2430 -88.7770 55° Northeast 308 354 9,900 240 Climbing FlightAware
01:39PM 41.2540 -88.7580 52° Northeast 304 350 9,900  Level FlightAware
01:39PM 41.2720 -88.7240 55° Northeast 303 349 9,900 -360 Level FlightAware
01:40PM 41.2860 -88.7000 52° Northeast 300 345 9,700 -1,140 Descending FlightAware
01:40PM 41.3020 -88.6700 55° Northeast 299 344 9,200 -1,380 Descending FlightAware
01:40PM 41.3210 -88.6340 55° Northeast 298 343 8,700 -1,380 Descending FlightAware
01:41PM 41.3390 -88.6020 53° Northeast 297 342 8,200 -1,500 Descending FlightAware
01:41PM 41.3660 -88.5520 54° Northeast 296 341 7,300 -1,500 Descending FlightAware
01:42PM 41.3890 -88.5090 55° Northeast 296 341 6,700 -1,440 Descending FlightAware
01:42PM 41.4100 -88.4690 55° Northeast 295 339 6,000 -900 Descending FlightAware
01:43PM 41.4220 -88.4440 57° Northeast 286 329 5,900 -180 Descending FlightAware
01:43PM 41.4310 -88.4240 59° Northeast 284 327 5,900  Level FlightAware
01:43PM 41.4620 -88.3590 58° Northeast 293 337 5,900  Level FlightAware
01:44PM 41.4800 -88.3200 58° Northeast 291 335 5,900 -660 Level FlightAware
01:44PM 41.4990 -88.2710 63° Northeast 293 337 5,300 -1,080 Descending FlightAware
01:45PM 41.5130 -88.2260 67° East 291 335 4,900 -480 Descending FlightAware
01:45PM 41.5270 -88.1820 67° East 289 333 4,900  Level FlightAware
01:45PM 41.5360 -88.1560 65° Northeast 288 331 4,900  Level FlightAware
01:46PM 41.5480 -88.1180 67° East 290 334 4,900  Level FlightAware
01:46PM 41.5540 -88.0910 73° East 289 333 4,900  Level FlightAware
01:47PM 41.5560 -88.0570 85° East 288 331 4,900  Level FlightAware
01:47PM 41.5610 -87.9830 85° East 287 330 4,900  Level FlightAware
01:47PM 41.5630 -87.9450 86° East 287 330 4,900  Level FlightAware
01:48PM 41.5660 -87.8950 85° East 287 330 4,900 -300 Level FlightAware
01:48PM 41.5690 -87.8390 86° East 287 330 4,600 -540 Descending FlightAware
01:49PM 41.5720 -87.7900 85° East 269 310 4,400 -420 Descending FlightAware
01:49PM 41.5730 -87.7690 86° East 260 299 4,300 -480 Descending FlightAware
01:50PM 41.5760 -87.7300 84° East 241 277 4,100 -780 Descending FlightAware
01:50PM 41.5790 -87.7070 80° East 243 280 3,800 -1,380 Descending FlightAware
01:50PM 41.5960 -87.6710 58° Northeast 242 278 3,100 -960 Descending FlightAware
01:51PM 41.6130 -87.6360 57° Northeast 226 260 2,900 -300 Descending FlightAware
01:51PM 41.6210 -87.6180 59° Northeast 208 239 2,900 -600 Level FlightAware
01:52PM 41.6350 -87.5910 55° Northeast 199 229 2,500 -720 Descending FlightAware
01:52PM 41.6450 -87.5790 42° Northeast 193 222 2,400 -300 Descending FlightAware
01:52PM 41.6510 -87.5770 14° North 189 217 2,400  Level FlightAware
01:52PM 41.6730 -87.5970 326° Northwest 180 207 2,400  Level FlightAware
01:53PM 41.6900 -87.6170 319° Northwest 182 209 2,400  Level FlightAware
01:53PM 41.7010 -87.6330 313° West 189 217 2,400  Level FlightAware
01:54PM 41.7170 -87.6560 313° West 186 214 2,400 -180 Level FlightAware
01:54PM 41.7290 -87.6690 321° Northwest 193 222 2,300 -420 Descending FlightAware
01:54PM 41.7430 -87.6750 342° North 199 229 2,200 -600 Descending FlightAware
01:55PM 41.7660 -87.6790 353° North 187 215 1,900 -600 Descending FlightAware
01:55PM 41.7800 -87.6800 357° North 186 214 1,800 -360 Descending FlightAware
01:55PM 41.7960 -87.6850 347° North 174 200 1,700 -480 Descending FlightAware
01:56PM 41.8080 -87.6960 326° Northwest 144 166 1,500 -780 Descending FlightAware
01:56PM 41.8060 -87.7250 265° West 141 162 1,000 -540 Descending FlightAware
01:57PM 41.7917 -87.7411 265° West 161 185 900 -180 Descending Chicago Center